Time;durP1;ratioP1;P1;durP2;ratioP2;P2;SDS_P1;SDS_P2;PMS_P1;PMS_P2;Temp;Humidity;BMP_temperature;BMP_pressure;BME280_temperature;BME280_humidity;BME280_pressure;Samples;Min_cycle;Max_cycle;Signal;HPM_P1;HPM_P2
2023/08/19 00:01:22;;;;;;;26.57;16.70;;;20.70;99.90;;;;;;5066145;28;20580;-80
2023/08/19 00:03:48;;;;;;;27.10;15.73;;;20.70;99.90;;;;;;5048547;28;20221;-80
2023/08/19 00:06:40;;;;;;;27.23;16.43;;;20.70;99.90;;;;;;5031612;28;20256;-80
2023/08/19 00:09:08;;;;;;;29.70;17.90;;;20.70;99.90;;;;;;5050516;28;20181;-80
2023/08/19 00:11:35;;;;;;;29.37;17.70;;;20.70;99.90;;;;;;5070505;28;20216;-80
2023/08/19 00:14:05;;;;;;;28.13;15.60;;;20.80;99.90;;;;;;5069617;28;20228;-80
2023/08/19 00:16:32;;;;;;;27.30;15.83;;;20.70;99.90;;;;;;5052942;28;20304;-80
2023/08/19 00:18:57;;;;;;;26.23;16.20;;;20.70;99.90;;;;;;5069759;28;20213;-80
2023/08/19 00:21:23;;;;;;;33.73;16.90;;;20.60;99.90;;;;;;5052359;28;20755;-80
2023/08/19 00:23:50;;;;;;;28.17;16.10;;;20.60;99.90;;;;;;5070387;28;20269;-80
2023/08/19 00:26:16;;;;;;;32.37;16.63;;;20.50;99.90;;;;;;5068637;28;20229;-80
2023/08/19 00:28:42;;;;;;;28.40;16.63;;;20.50;99.90;;;;;;5069706;28;20209;-80
2023/08/19 00:31:08;;;;;;;28.20;16.37;;;20.50;99.90;;;;;;5069490;28;20221;-79
2023/08/19 00:33:34;;;;;;;31.17;17.07;;;20.50;99.90;;;;;;5051815;28;20215;-80
2023/08/19 00:36:01;;;;;;;28.27;17.50;;;20.50;99.90;;;;;;5070324;28;20170;-79
2023/08/19 00:38:27;;;;;;;27.07;17.27;;;20.60;99.90;;;;;;5069386;28;20217;-80
2023/08/19 00:40:53;;;;;;;26.07;17.20;;;20.50;99.90;;;;;;5051962;28;20217;-80
2023/08/19 00:43:19;;;;;;;29.10;17.50;;;20.50;99.90;;;;;;5051513;28;20206;-80
2023/08/19 00:45:49;;;;;;;28.57;15.90;;;20.40;99.90;;;;;;5035114;28;20812;-80
2023/08/19 00:48:18;;;;;;;29.57;16.70;;;20.20;99.90;;;;;;5050962;28;20773;-80
2023/08/19 00:50:44;;;;;;;26.60;15.50;;;20.10;99.90;;;;;;5051835;28;20387;-80
2023/08/19 00:53:12;;;;;;;24.83;15.93;;;20.00;99.90;;;;;;5069338;28;20232;-80
2023/08/19 00:55:38;;;;;;;28.57;15.53;;;19.90;99.90;;;;;;5069276;28;20577;-80
2023/08/19 00:58:07;;;;;;;24.37;15.27;;;19.90;99.90;;;;;;5050929;28;20870;-80
2023/08/19 01:00:34;;;;;;;26.40;15.03;;;19.80;99.90;;;;;;5068823;28;20764;-80
2023/08/19 01:03:00;;;;;;;26.73;16.37;;;19.80;99.90;;;;;;5051757;28;20202;-80
2023/08/19 01:05:51;;;;;;;25.23;15.50;;;19.70;99.90;;;;;;5051136;28;20251;-80
2023/08/19 01:08:24;;;;;;;25.47;16.17;;;19.60;99.90;;;;;;5051046;28;20671;-80
2023/08/19 01:11:16;;;;;;;23.50;14.20;;;19.50;99.90;;;;;;5051454;28;20399;-79
2023/08/19 01:14:03;;;;;;;23.93;14.57;;;19.60;99.90;;;;;;5068519;28;20561;-80
2023/08/19 01:16:30;;;;;;;26.17;16.07;;;19.50;99.90;;;;;;5051113;28;20221;-80
2023/08/19 01:18:57;;;;;;;23.40;16.03;;;19.60;99.90;;;;;;5034310;28;20458;-80
2023/08/19 01:21:23;;;;;;;27.87;16.27;;;19.60;99.90;;;;;;5067806;28;20177;-80
2023/08/19 01:23:53;;;;;;;25.40;16.87;;;19.60;99.90;;;;;;5068993;28;20189;-81
2023/08/19 01:26:19;;;;;;;31.33;18.03;;;19.70;99.90;;;;;;5068561;28;20228;-80
2023/08/19 01:28:49;;;;;;;27.80;16.37;;;19.80;99.90;;;;;;5033927;28;20217;-80
2023/08/19 01:31:14;;;;;;;36.37;18.03;;;19.80;99.90;;;;;;5068404;28;20288;-80
2023/08/19 01:33:40;;;;;;;26.40;15.40;;;19.80;99.90;;;;;;5050421;28;20320;-79
2023/08/19 01:36:15;;;;;;;26.83;15.93;;;19.80;99.90;;;;;;5051047;28;20189;-80
2023/08/19 01:38:57;;;;;;;27.00;16.67;;;19.80;99.90;;;;;;5050543;28;20211;-80
2023/08/19 01:41:26;;;;;;;26.00;16.83;;;19.80;99.90;;;;;;5050289;28;20209;-80
2023/08/19 01:43:52;;;;;;;33.37;17.17;;;19.80;99.90;;;;;;5034325;28;20273;-80
2023/08/19 01:46:18;;;;;;;26.07;15.80;;;19.70;99.90;;;;;;5067972;28;20635;-80
2023/08/19 01:48:44;;;;;;;29.57;15.97;;;19.70;99.90;;;;;;5050210;28;20498;-80
2023/08/19 01:51:10;;;;;;;29.47;17.17;;;19.60;99.90;;;;;;5050079;28;20252;-80
2023/08/19 01:53:35;;;;;;;27.00;16.80;;;19.60;99.90;;;;;;5034006;28;20193;-80
2023/08/19 01:56:01;;;;;;;28.90;16.90;;;19.70;99.90;;;;;;5050229;28;20824;-80
2023/08/19 01:58:27;;;;;;;31.13;17.23;;;19.60;99.90;;;;;;5033350;28;20219;-80
2023/08/19 02:00:53;;;;;;;29.93;17.70;;;19.70;99.90;;;;;;5042063;28;20225;-80
2023/08/19 02:03:18;;;;;;;25.50;16.37;;;19.70;99.90;;;;;;5049989;28;20257;-80
2023/08/19 02:05:44;;;;;;;31.50;17.03;;;19.70;99.90;;;;;;5033766;28;20288;-80
2023/08/19 02:08:10;;;;;;;26.67;17.57;;;19.70;99.90;;;;;;5067384;28;20221;-80
2023/08/19 02:10:35;;;;;;;25.57;16.47;;;19.70;99.90;;;;;;5067711;28;20674;-80
2023/08/19 02:13:02;;;;;;;25.90;15.90;;;19.70;99.90;;;;;;5049755;28;20213;-80
2023/08/19 02:15:28;;;;;;;35.20;17.87;;;19.60;99.90;;;;;;5067275;28;20233;-80
2023/08/19 02:17:54;;;;;;;30.90;17.07;;;19.60;99.90;;;;;;5049996;28;20578;-80
2023/08/19 02:20:19;;;;;;;25.33;16.70;;;19.50;99.90;;;;;;5067224;28;20213;-80
2023/08/19 02:22:45;;;;;;;25.73;16.93;;;19.60;99.90;;;;;;5033156;28;20220;-80
2023/08/19 02:25:11;;;;;;;29.70;16.93;;;19.50;99.90;;;;;;5049177;28;20361;-80
2023/08/19 02:27:38;;;;;;;24.77;16.40;;;19.40;99.90;;;;;;5067362;28;20209;-80
2023/08/19 02:30:05;;;;;;;25.80;15.30;;;19.30;99.90;;;;;;5067123;28;20173;-80
2023/08/19 02:32:30;;;;;;;26.03;16.07;;;19.20;99.90;;;;;;5048917;28;20213;-80
2023/08/19 02:34:56;;;;;;;22.27;14.57;;;19.10;99.90;;;;;;5066864;28;20639;-79
2023/08/19 02:37:22;;;;;;;26.50;15.97;;;19.20;99.90;;;;;;5048531;28;20225;-80
2023/08/19 02:39:47;;;;;;;26.37;14.33;;;19.20;99.90;;;;;;5048973;28;20710;-80
2023/08/19 02:42:16;;;;;;;24.60;15.70;;;19.20;99.90;;;;;;5032702;28;20180;-80
2023/08/19 02:44:43;;;;;;;25.60;16.70;;;19.20;99.90;;;;;;5049180;28;20289;-80
2023/08/19 02:47:11;;;;;;;21.97;15.23;;;19.20;99.90;;;;;;5066722;28;20239;-80
2023/08/19 02:49:37;;;;;;;25.77;14.27;;;19.30;99.90;;;;;;5048579;28;20267;-80
2023/08/19 02:52:04;;;;;;;34.20;16.60;;;19.30;99.90;;;;;;5032115;28;20237;-80
2023/08/19 02:54:29;;;;;;;23.73;16.23;;;19.40;99.90;;;;;;5048107;28;20849;-80
2023/08/19 02:56:55;;;;;;;31.80;17.87;;;19.60;99.90;;;;;;5049087;28;20215;-80
2023/08/19 02:59:21;;;;;;;27.67;16.87;;;19.60;99.90;;;;;;5048427;28;20303;-80
2023/08/19 03:01:46;;;;;;;25.90;16.37;;;19.70;99.90;;;;;;5031997;28;20705;-80
2023/08/19 03:04:12;;;;;;;26.07;16.33;;;19.70;99.90;;;;;;5048840;28;20213;-80
2023/08/19 03:06:38;;;;;;;29.30;16.80;;;19.70;99.90;;;;;;5065736;28;20739;-81
2023/08/19 03:09:05;;;;;;;28.67;16.53;;;19.70;99.90;;;;;;5032705;28;20169;-80
2023/08/19 03:11:30;;;;;;;30.13;16.10;;;19.70;99.90;;;;;;5031888;28;20220;-80
2023/08/19 03:13:56;;;;;;;26.80;15.30;;;19.70;99.90;;;;;;5031663;28;20204;-80
2023/08/19 03:16:22;;;;;;;26.87;15.93;;;19.90;99.90;;;;;;5048069;28;20225;-80
2023/08/19 03:18:48;;;;;;;30.07;16.07;;;20.00;99.90;;;;;;5048003;28;20228;-80
2023/08/19 03:21:13;;;;;;;38.90;16.67;;;20.00;99.90;;;;;;5047981;28;20198;-80
2023/08/19 03:23:39;;;;;;;29.87;15.67;;;20.20;99.90;;;;;;5066535;28;20264;-80
2023/08/19 03:26:05;;;;;;;25.73;15.87;;;20.20;99.90;;;;;;5047933;28;20682;-80
2023/08/19 03:28:31;;;;;;;24.70;16.33;;;20.20;99.90;;;;;;5065668;28;20248;-80
2023/08/19 03:30:56;;;;;;;24.83;16.27;;;20.30;99.90;;;;;;5048049;28;20217;-80
2023/08/19 03:33:22;;;;;;;28.53;15.57;;;20.30;99.90;;;;;;5065664;28;20199;-80
2023/08/19 03:35:48;;;;;;;26.40;16.67;;;20.30;99.90;;;;;;5066299;28;20182;-80
2023/08/19 03:38:15;;;;;;;31.57;18.50;;;20.30;99.90;;;;;;5046343;28;20213;-79
2023/08/19 03:40:40;;;;;;;32.63;18.37;;;20.30;99.90;;;;;;5047971;28;20270;-80
2023/08/19 03:43:09;;;;;;;23.67;15.37;;;20.30;99.90;;;;;;5024123;28;20762;-80
2023/08/19 03:45:35;;;;;;;29.80;15.40;;;20.30;99.90;;;;;;5051666;28;20225;-80
2023/08/19 03:48:01;;;;;;;23.33;15.37;;;20.30;99.90;;;;;;5052974;28;20177;-80
2023/08/19 03:50:27;;;;;;;31.50;17.03;;;20.20;99.90;;;;;;5070089;28;20264;-81
2023/08/19 03:52:53;;;;;;;24.93;15.50;;;20.20;99.90;;;;;;5052763;28;20224;-80
2023/08/19 03:55:18;;;;;;;23.47;15.20;;;20.20;99.90;;;;;;5035889;28;20221;-80
2023/08/19 03:57:46;;;;;;;25.27;14.37;;;20.20;99.90;;;;;;5070084;28;20227;-80
2023/08/19 04:00:12;;;;;;;24.57;12.83;;;20.20;99.90;;;;;;5070325;28;20173;-81
2023/08/19 04:02:38;;;;;;;26.93;15.90;;;20.20;99.90;;;;;;5052830;28;20181;-80
2023/08/19 04:05:05;;;;;;;23.30;14.00;;;20.20;99.90;;;;;;5051991;28;20232;-81
2023/08/19 04:07:31;;;;;;;29.47;16.90;;;20.20;99.90;;;;;;5069983;28;20212;-80
2023/08/19 04:09:57;;;;;;;23.60;14.77;;;20.10;99.90;;;;;;5052317;28;20221;-80
2023/08/19 04:12:26;;;;;;;25.30;14.80;;;20.20;99.90;;;;;;5051828;28;20193;-80
2023/08/19 04:14:53;;;;;;;25.37;15.13;;;20.20;99.90;;;;;;5052358;28;20535;-80
2023/08/19 04:17:19;;;;;;;25.63;13.70;;;20.10;99.90;;;;;;5035271;28;20292;-80
2023/08/19 04:19:45;;;;;;;25.60;14.90;;;20.20;99.90;;;;;;5052013;28;20380;-80
2023/08/19 04:22:17;;;;;;;24.83;14.37;;;20.20;99.90;;;;;;5052092;28;20220;-80
2023/08/19 04:24:52;;;;;;;22.00;14.40;;;20.20;99.90;;;;;;5034808;28;20201;-80
2023/08/19 04:27:19;;;;;;;24.53;14.53;;;20.20;99.90;;;;;;5069503;28;20163;-81
2023/08/19 04:29:45;;;;;;;24.20;14.17;;;20.20;99.90;;;;;;5052301;28;20174;-80
2023/08/19 04:32:11;;;;;;;26.10;16.27;;;20.40;99.90;;;;;;5069441;28;20741;-81
2023/08/19 04:34:37;;;;;;;24.23;15.50;;;20.40;99.90;;;;;;5069568;28;20281;-80
2023/08/19 04:37:03;;;;;;;30.73;15.57;;;20.50;99.90;;;;;;5069557;28;20213;-80
2023/08/19 04:39:28;;;;;;;24.77;15.43;;;20.50;99.90;;;;;;5051681;28;20233;-80
2023/08/19 04:41:54;;;;;;;27.77;14.93;;;20.60;99.90;;;;;;5052030;28;20178;-80
2023/08/19 04:44:20;;;;;;;23.70;16.03;;;20.70;99.90;;;;;;5051532;28;20221;-80
2023/08/19 04:46:46;;;;;;;22.63;14.53;;;20.70;99.90;;;;;;5051219;28;20232;-80
2023/08/19 04:49:12;;;;;;;28.37;15.93;;;20.80;99.90;;;;;;5034499;28;20678;-80
2023/08/19 04:51:38;;;;;;;25.13;14.67;;;20.80;99.90;;;;;;5051112;28;20240;-80
2023/08/19 04:54:04;;;;;;;24.63;14.97;;;20.90;99.90;;;;;;5035096;28;20209;-80
2023/08/19 04:56:30;;;;;;;26.07;14.00;;;20.80;99.90;;;;;;5051080;28;20746;-81
2023/08/19 04:59:00;;;;;;;26.57;14.67;;;20.90;99.90;;;;;;5069316;28;20241;-80
2023/08/19 05:01:26;;;;;;;20.17;13.90;;;21.00;99.90;;;;;;5051111;28;20213;-80
2023/08/19 05:03:53;;;;;;;32.67;14.43;;;21.00;99.90;;;;;;5034790;28;20209;-80
2023/08/19 05:06:19;;;;;;;23.47;13.93;;;20.90;99.90;;;;;;5050854;28;20712;-80
2023/08/19 05:08:45;;;;;;;22.13;14.47;;;21.00;99.90;;;;;;5051630;28;20170;-80
2023/08/19 05:11:10;;;;;;;24.17;14.10;;;21.00;99.90;;;;;;5051172;28;20267;-80
2023/08/19 05:13:36;;;;;;;20.43;13.03;;;21.10;99.90;;;;;;5051004;28;20217;-80
2023/08/19 05:16:02;;;;;;;20.53;13.37;;;21.10;99.90;;;;;;5050648;28;20557;-80
2023/08/19 05:18:28;;;;;;;18.80;12.37;;;21.10;99.90;;;;;;5050837;28;20225;-80
2023/08/19 05:20:54;;;;;;;20.60;13.27;;;21.20;99.90;;;;;;5051784;28;20264;-80
2023/08/19 05:23:19;;;;;;;25.23;14.53;;;21.20;99.90;;;;;;5050889;28;20225;-80
2023/08/19 05:25:45;;;;;;;24.60;14.27;;;21.30;99.90;;;;;;5050725;28;20229;-80
2023/08/19 05:28:11;;;;;;;22.63;14.30;;;21.40;99.90;;;;;;5050758;28;20666;-81
2023/08/19 05:30:37;;;;;;;22.83;13.93;;;21.40;99.90;;;;;;5050465;28;20216;-83
2023/08/19 05:33:03;;;;;;;23.07;14.57;;;21.50;99.90;;;;;;5034649;28;20185;-81
2023/08/19 05:35:29;;;;;;;22.73;14.13;;;21.60;99.90;;;;;;5068576;28;20231;-82
2023/08/19 05:37:55;;;;;;;22.57;13.97;;;21.50;99.90;;;;;;5050756;28;20650;-81
2023/08/19 05:40:21;;;;;;;23.80;13.87;;;21.60;99.90;;;;;;5050198;28;20217;-81
2023/08/19 05:42:47;;;;;;;20.30;13.80;;;21.60;99.90;;;;;;5050383;28;20749;-82
2023/08/19 05:45:14;;;;;;;20.63;13.73;;;21.70;99.90;;;;;;5033896;28;20216;-81
2023/08/19 05:47:40;;;;;;;20.70;12.57;;;21.70;99.90;;;;;;5068822;28;20200;-82
2023/08/19 05:50:06;;;;;;;18.57;11.90;;;21.70;99.90;;;;;;5067851;28;20252;-81
2023/08/19 05:52:32;;;;;;;18.60;11.70;;;21.70;99.90;;;;;;5032594;28;20304;-81
2023/08/19 05:54:58;;;;;;;20.23;12.00;;;21.80;99.90;;;;;;5049263;28;20303;-81
2023/08/19 05:57:24;;;;;;;18.90;13.10;;;21.80;99.90;;;;;;5066959;28;20648;-81
2023/08/19 05:59:50;;;;;;;16.07;11.17;;;21.70;99.90;;;;;;5049826;28;20837;-81
2023/08/19 06:02:15;;;;;;;17.38;12.45;;;21.70;99.90;;;;;;5032647;28;20220;-82
2023/08/19 06:04:42;;;;;;;16.40;11.00;;;21.70;99.90;;;;;;5048245;28;20217;-81
2023/08/19 06:07:09;;;;;;;18.67;11.95;;;21.70;99.90;;;;;;5049017;28;20240;-82
2023/08/19 06:09:34;;;;;;;17.77;11.00;;;21.70;99.90;;;;;;5049002;28;20232;-82
2023/08/19 06:12:02;;;;;;;20.10;12.60;;;21.80;99.90;;;;;;5033132;28;20254;-82
2023/08/19 06:14:28;;;;;;;17.17;11.23;;;21.80;99.90;;;;;;5048419;28;20229;-82
2023/08/19 06:16:53;;;;;;;18.35;11.10;;;21.80;99.90;;;;;;5049179;28;20280;-82
2023/08/19 06:19:19;;;;;;;18.60;11.07;;;21.80;99.90;;;;;;5048673;28;20227;-82
2023/08/19 06:21:46;;;;;;;17.30;11.70;;;21.90;99.90;;;;;;5065448;28;20584;-82
2023/08/19 06:24:11;;;;;;;15.10;11.17;;;21.90;99.90;;;;;;5048773;28;20204;-81
2023/08/19 06:26:37;;;;;;;15.13;11.48;;;22.00;99.90;;;;;;5049240;28;20550;-81
2023/08/19 06:29:03;;;;;;;18.15;12.48;;;22.00;99.90;;;;;;5048552;28;20225;-81
2023/08/19 06:31:29;;;;;;;17.83;12.57;;;22.10;99.90;;;;;;5032045;28;20237;-81
2023/08/19 06:33:55;;;;;;;17.00;11.00;;;22.10;99.90;;;;;;5032249;28;20205;-81
2023/08/19 06:36:25;;;;;;;15.77;11.07;;;22.10;99.90;;;;;;5048581;28;20177;-81
2023/08/19 06:39:24;;;;;;;19.30;11.10;;;22.20;99.90;;;;;;5049414;28;20161;-82
2023/08/19 06:41:55;;;;;;;16.20;10.33;;;22.30;99.90;;;;;;5048857;28;20276;-81
2023/08/19 06:44:22;;;;;;;14.83;11.07;;;22.30;99.90;;;;;;5066395;28;20213;-80
2023/08/19 06:46:49;;;;;;;19.00;11.90;;;22.40;99.90;;;;;;5066241;28;20237;-80
2023/08/19 06:49:15;;;;;;;17.90;9.37;;;22.50;99.90;;;;;;5048497;28;20217;-81
2023/08/19 06:51:41;;;;;;;20.70;11.37;;;22.40;99.90;;;;;;4993246;28;1116064;-81
2023/08/19 06:54:08;;;;;;;18.38;11.70;;;22.60;99.90;;;;;;5049063;28;20181;-81
2023/08/19 06:56:49;;;;;;;16.83;11.10;;;22.60;99.90;;;;;;5029334;28;20640;-81
2023/08/19 06:59:38;;;;;;;15.63;9.93;;;22.70;99.90;;;;;;5045515;28;20301;-82
2023/08/19 07:02:05;;;;;;;16.65;11.35;;;22.80;99.90;;;;;;5029616;28;20218;-81
2023/08/19 07:04:32;;;;;;;13.77;9.23;;;22.90;99.90;;;;;;5063729;28;20232;-81
2023/08/19 07:06:59;;;;;;;19.42;10.45;;;22.90;99.90;;;;;;5066334;28;20264;-81
2023/08/19 07:09:26;;;;;;;17.90;11.68;;;22.90;99.90;;;;;;5048940;28;20173;-80
2023/08/19 07:11:56;;;;;;;13.32;10.07;;;22.90;99.90;;;;;;5049508;28;20566;-81
2023/08/19 07:14:26;;;;;;;17.98;10.25;;;23.00;99.90;;;;;;5066504;28;20236;-81
2023/08/19 07:16:54;;;;;;;13.95;9.13;;;23.00;99.90;;;;;;5032273;28;20730;-82
2023/08/19 07:19:26;;;;;;;17.30;10.10;;;23.10;99.90;;;;;;5066322;28;20786;-82
2023/08/19 07:21:54;;;;;;;16.77;10.52;;;23.10;99.90;;;;;;5048539;28;20284;-81
2023/08/19 07:24:20;;;;;;;15.30;10.07;;;23.20;99.90;;;;;;5048824;28;20173;-82
2023/08/19 07:26:47;;;;;;;11.88;9.07;;;23.20;99.90;;;;;;5032805;28;20208;-82
2023/08/19 07:29:14;;;;;;;15.80;9.13;;;23.20;99.90;;;;;;5049841;28;20221;-82
2023/08/19 07:31:41;;;;;;;13.77;8.65;;;23.20;99.90;;;;;;5032010;28;20213;-82
2023/08/19 07:34:07;;;;;;;15.55;9.00;;;23.20;99.90;;;;;;5066316;28;20216;-82
2023/08/19 07:36:33;;;;;;;15.30;10.10;;;23.30;99.90;;;;;;5031584;28;20233;-82
2023/08/19 07:39:00;;;;;;;14.93;9.57;;;23.30;99.90;;;;;;5067255;28;20523;-81
2023/08/19 07:41:25;;;;;;;12.88;9.85;;;23.30;99.90;;;;;;5048526;28;20259;-82
2023/08/19 07:43:52;;;;;;;11.73;8.93;;;23.40;99.90;;;;;;5048348;28;20670;-81
2023/08/19 07:46:17;;;;;;;12.98;8.98;;;23.50;99.90;;;;;;5048465;28;20376;-81
2023/08/19 07:48:46;;;;;;;12.50;8.90;;;23.50;99.90;;;;;;5065918;28;20220;-80
2023/08/19 07:51:13;;;;;;;14.98;8.55;;;23.60;99.90;;;;;;5021029;28;20582;-81
2023/08/19 07:53:41;;;;;;;11.38;8.73;;;23.70;99.90;;;;;;5046861;28;20194;-81
2023/08/19 07:56:07;;;;;;;12.68;8.40;;;23.80;99.90;;;;;;5046556;28;20213;-81
2023/08/19 07:58:35;;;;;;;13.45;8.30;;;23.90;99.90;;;;;;5011521;28;20572;-81
2023/08/19 08:01:00;;;;;;;9.20;8.10;;;23.90;99.90;;;;;;5028558;28;20213;-82
2023/08/19 08:03:26;;;;;;;14.48;8.70;;;24.00;99.90;;;;;;5012093;28;20512;-84
2023/08/19 08:05:52;;;;;;;15.43;9.68;;;24.10;99.90;;;;;;5028741;28;20206;-84
2023/08/19 08:08:18;;;;;;;14.50;8.88;;;24.30;99.90;;;;;;4978509;28;20220;-84
2023/08/19 08:10:44;;;;;;;12.10;8.35;;;24.30;99.90;;;;;;5022772;28;20225;-84
2023/08/19 08:13:10;;;;;;;15.35;8.95;;;24.40;99.90;;;;;;5028937;28;20233;-83
2023/08/19 08:15:36;;;;;;;12.18;8.13;;;24.50;99.90;;;;;;5028692;28;20210;-84
2023/08/19 08:18:02;;;;;;;12.63;8.13;;;24.70;99.90;;;;;;5029651;28;20248;-83
2023/08/19 08:20:29;;;;;;;12.98;8.73;;;24.80;99.90;;;;;;5028799;28;20214;-84
2023/08/19 08:22:55;;;;;;;8.80;6.97;;;24.70;99.90;;;;;;5046213;28;20246;-84
2023/08/19 08:25:20;;;;;;;8.68;6.82;;;24.80;99.90;;;;;;5012091;28;20241;-83
2023/08/19 08:27:49;;;;;;;10.95;8.35;;;24.80;99.90;;;;;;5012414;28;20210;-83
2023/08/19 08:30:15;;;;;;;10.50;7.25;;;24.90;99.90;;;;;;5016133;28;20253;-83
2023/08/19 08:32:41;;;;;;;15.13;8.80;;;24.80;99.90;;;;;;5016374;28;20261;-84
2023/08/19 08:35:10;;;;;;;10.90;7.32;;;24.80;99.90;;;;;;5032056;28;20225;-83
2023/08/19 08:37:36;;;;;;;11.45;8.18;;;24.80;99.90;;;;;;5032078;28;20293;-84
2023/08/19 08:40:01;;;;;;;14.07;7.90;;;24.80;99.90;;;;;;5031704;28;20221;-84
2023/08/19 08:42:28;;;;;;;12.48;7.28;;;24.80;99.90;;;;;;5049322;28;20516;-85
2023/08/19 08:44:57;;;;;;;10.65;7.75;;;24.70;99.90;;;;;;5050416;28;20474;-84
2023/08/19 08:47:24;;;;;;;10.82;8.30;;;24.60;99.90;;;;;;5049519;28;20651;-83
2023/08/19 08:49:52;;;;;;;12.95;8.48;;;24.50;99.90;;;;;;5031733;28;20228;-83
2023/08/19 08:52:20;;;;;;;12.30;9.00;;;24.40;99.90;;;;;;5050301;28;20237;-84
2023/08/19 08:54:48;;;;;;;13.30;8.75;;;24.40;99.90;;;;;;5051988;28;20225;-84
2023/08/19 08:57:16;;;;;;;12.77;8.50;;;24.40;99.90;;;;;;5069317;28;20174;-83
2023/08/19 08:59:42;;;;;;;10.93;8.35;;;24.30;99.90;;;;;;5035344;28;20201;-85
2023/08/19 09:02:14;;;;;;;15.10;9.40;;;24.10;99.90;;;;;;5026075;28;20213;-84
2023/08/19 09:04:46;;;;;;;11.70;8.30;;;23.90;99.90;;;;;;5051131;28;20235;-84
2023/08/19 09:07:27;;;;;;;14.40;8.43;;;23.80;99.90;;;;;;5059387;28;20210;-84
2023/08/19 09:09:57;;;;;;;12.75;8.65;;;23.70;99.90;;;;;;5049196;28;20217;-85
2023/08/19 09:12:26;;;;;;;19.63;9.35;;;23.80;99.90;;;;;;5023995;28;20150;-84
2023/08/19 09:15:02;;;;;;;11.30;9.07;;;23.80;99.90;;;;;;5046225;28;20174;-84
2023/08/19 09:17:32;;;;;;;13.10;8.88;;;23.90;99.90;;;;;;5030698;28;20213;-84
2023/08/19 09:20:00;;;;;;;12.77;8.15;;;24.00;99.90;;;;;;5048294;28;20218;-84
2023/08/19 09:22:25;;;;;;;16.40;9.93;;;24.10;99.90;;;;;;5048066;28;20233;-84
2023/08/19 09:24:54;;;;;;;13.30;9.85;;;24.20;99.90;;;;;;5034543;28;20213;-86
2023/08/19 09:27:31;;;;;;;15.73;9.68;;;24.30;99.90;;;;;;5068269;28;20169;-83
2023/08/19 09:29:58;;;;;;;22.52;10.85;;;24.30;99.90;;;;;;5052298;28;20149;-84
2023/08/19 09:32:28;;;;;;;14.27;9.63;;;24.40;99.90;;;;;;5051042;28;20209;-85
2023/08/19 09:35:02;;;;;;;17.42;10.35;;;24.50;99.90;;;;;;5034366;28;20236;-84
2023/08/19 09:37:30;;;;;;;14.77;9.95;;;24.60;99.90;;;;;;5051068;28;20694;-83
2023/08/19 09:39:56;;;;;;;13.55;9.38;;;24.60;99.90;;;;;;5032937;28;20278;-84
2023/08/19 09:42:21;;;;;;;19.15;10.60;;;24.80;99.90;;;;;;5068516;28;20248;-84
2023/08/19 09:44:47;;;;;;;14.70;8.93;;;24.70;99.90;;;;;;5069025;28;20181;-85
2023/08/19 09:47:13;;;;;;;17.17;10.27;;;24.70;99.90;;;;;;5068524;28;20213;-84
2023/08/19 09:50:06;;;;;;;11.15;9.45;;;24.70;99.90;;;;;;5034350;28;20597;-87
2023/08/19 09:56:35;;;;;;;14.10;9.68;;;24.80;99.90;;;;;;5055650;28;20729;-88
2023/08/19 09:59:16;;;;;;;14.35;10.10;;;24.80;99.90;;;;;;5037387;28;20216;-88
2023/08/19 10:02:10;;;;;;;14.82;9.48;;;24.80;99.90;;;;;;5040047;28;20209;-88
2023/08/19 10:04:54;;;;;;;;;;;;;;;;;;;;;
2023/08/19 10:07:54;;;;;;;;;;;;;;;;;;;;;
2023/08/19 10:10:44;;;;;;;13.55;10.13;;;25.10;99.90;;;;;;5067816;28;20236;-88
2023/08/19 10:13:35;;;;;;;;;;;;;;;;;;;;;
2023/08/19 10:16:52;;;;;;;14.95;10.25;;;25.50;99.90;;;;;;5058362;28;20188;-88
2023/08/19 10:19:25;;;;;;;11.80;9.63;;;25.70;99.90;;;;;;5086514;28;20162;-87
2023/08/19 10:22:02;;;;;;;16.27;11.07;;;25.60;99.90;;;;;;5052137;28;20197;-87
2023/08/19 10:24:41;;;;;;;14.20;10.15;;;25.60;99.90;;;;;;5052361;28;20157;-86
2023/08/19 10:27:16;;;;;;;17.90;11.20;;;25.60;99.90;;;;;;5052750;28;20291;-89
2023/08/19 10:29:46;;;;;;;15.27;11.63;;;25.70;99.90;;;;;;5052116;28;20153;-88
2023/08/19 10:32:34;;;;;;;16.35;11.18;;;25.80;99.90;;;;;;5070459;28;20180;-88
2023/08/19 10:35:11;;;;;;;14.73;10.63;;;25.80;99.90;;;;;;5053315;28;20157;-88
2023/08/19 10:38:03;;;;;;;13.18;9.45;;;25.90;99.90;;;;;;5052141;28;20168;-89
2023/08/19 10:41:18;;;;;;;18.35;11.43;;;25.90;99.90;;;;;;5040776;28;20199;-88
2023/08/19 10:44:19;;;;;;;16.80;11.65;;;26.30;99.90;;;;;;5053602;28;20185;-88
2023/08/19 10:47:21;;;;;;;19.15;12.82;;;26.30;99.90;;;;;;5037060;28;20643;-88
2023/08/19 10:57:41;;;;;;;21.27;14.00;;;25.70;99.90;;;;;;5049729;28;20181;-87
2023/08/19 11:07:16;;;;;;;34.13;17.48;;;25.90;99.90;;;;;;5007647;28;20206;-85
2023/08/19 11:21:12;;;;;;;21.95;12.48;;;25.10;99.90;;;;;;4926830;29;20228;-86
2023/08/19 11:27:46;;;;;;;20.35;11.65;;;25.40;99.90;;;;;;4870242;29;20230;-86
2023/08/19 11:30:18;;;;;;;21.17;12.77;;;25.70;99.90;;;;;;4886689;29;20276;-82
2023/08/19 11:32:59;;;;;;;20.70;11.77;;;25.80;99.90;;;;;;4915743;29;20635;-83
2023/08/19 11:35:28;;;;;;;16.08;11.63;;;26.10;99.90;;;;;;4969182;28;20236;-85
2023/08/19 11:41:37;;;;;;;18.20;12.27;;;26.00;99.90;;;;;;4989600;28;20228;-83
2023/08/19 11:44:12;;;;;;;22.42;11.18;;;25.60;99.90;;;;;;5027039;28;20221;-84
2023/08/19 11:46:52;;;;;;;17.80;10.70;;;25.40;99.90;;;;;;5028192;28;20221;-83
2023/08/19 11:49:27;;;;;;;15.82;10.68;;;25.10;99.90;;;;;;5034482;28;20221;-83
2023/08/19 11:52:03;;;;;;;19.60;12.15;;;25.10;99.90;;;;;;5028570;28;20217;-83
2023/08/19 11:54:38;;;;;;;18.23;10.85;;;25.10;99.90;;;;;;4999332;28;20220;-83
2023/08/19 11:57:06;;;;;;;15.55;8.70;;;24.80;99.90;;;;;;5030571;28;20402;-83
2023/08/19 12:00:04;;;;;;;11.05;8.63;;;24.70;99.90;;;;;;5049612;28;20240;-83
2023/08/19 12:02:36;;;;;;;7.28;5.35;;;24.80;99.90;;;;;;5065628;28;20681;-82
2023/08/19 12:05:04;;;;;;;8.30;5.85;;;24.90;99.90;;;;;;5050958;28;20697;-81
2023/08/19 12:07:48;;;;;;;11.70;5.93;;;25.40;99.90;;;;;;5037671;28;20224;-83
2023/08/19 12:10:22;;;;;;;7.72;4.20;;;25.30;99.90;;;;;;5032756;28;20350;-83
2023/08/19 12:13:00;;;;;;;9.10;5.25;;;24.70;99.90;;;;;;5036091;28;20226;-84
2023/08/19 12:15:35;;;;;;;9.38;5.63;;;24.80;99.90;;;;;;5043712;28;20600;-82
2023/08/19 12:18:00;;;;;;;7.18;4.72;;;24.70;99.90;;;;;;5064692;28;20829;-83
2023/08/19 12:20:26;;;;;;;5.60;3.13;;;24.60;99.90;;;;;;5068959;28;20248;-83
2023/08/19 12:26:36;;;;;;;5.30;2.55;;;24.90;99.90;;;;;;5068164;28;20235;-83
2023/08/19 12:29:10;;;;;;;4.28;2.50;;;24.70;99.90;;;;;;5037592;28;20212;-84
2023/08/19 12:31:39;;;;;;;4.43;2.63;;;24.60;99.90;;;;;;5070404;28;20212;-83
2023/08/19 12:37:59;;;;;;;3.42;2.42;;;24.40;99.90;;;;;;5069555;28;20228;-82
2023/08/19 12:40:25;;;;;;;5.32;2.30;;;24.30;99.90;;;;;;5034437;28;20220;-82
2023/08/19 12:42:59;;;;;;;6.53;2.67;;;24.40;99.90;;;;;;5050355;28;20562;-82
2023/08/19 12:45:26;;;;;;;4.88;3.00;;;24.40;99.90;;;;;;5051252;28;20205;-84
2023/08/19 12:48:11;;;;;;;5.82;3.03;;;24.40;99.90;;;;;;5034803;28;20180;-82
2023/08/19 12:50:37;;;;;;;2.38;1.88;;;24.40;99.90;;;;;;5051002;28;20683;-82
2023/08/19 12:53:04;;;;;;;5.03;3.00;;;24.10;99.90;;;;;;5068880;28;20723;-82
2023/08/19 12:55:32;;;;;;;4.78;3.00;;;24.00;99.90;;;;;;5045504;28;20611;-82
2023/08/19 12:57:58;;;;;;;4.00;1.67;;;24.00;99.90;;;;;;5014702;28;20221;-83
2023/08/19 13:00:29;;;;;;;5.78;2.15;;;24.00;99.90;;;;;;5048712;28;20631;-82
2023/08/19 13:02:56;;;;;;;1.63;1.20;;;24.00;99.90;;;;;;5024059;28;20514;-82
2023/08/19 13:05:23;;;;;;;3.30;1.90;;;23.80;99.90;;;;;;5048509;28;20729;-84
2023/08/19 13:07:48;;;;;;;3.60;1.80;;;23.60;99.90;;;;;;5015050;28;20218;-81
2023/08/19 13:10:15;;;;;;;4.10;1.48;;;23.50;99.90;;;;;;5014873;28;20214;-83
2023/08/19 13:12:41;;;;;;;5.00;2.00;;;23.60;99.90;;;;;;5014668;28;20209;-82
2023/08/19 13:15:08;;;;;;;5.65;2.60;;;23.50;99.90;;;;;;5014801;28;20174;-81
2023/08/19 13:17:35;;;;;;;4.47;2.58;;;23.60;99.90;;;;;;5031585;28;20225;-82
2023/08/19 13:20:01;;;;;;;4.85;1.90;;;23.50;99.90;;;;;;5030665;28;20222;-82
2023/08/19 13:22:26;;;;;;;6.22;2.60;;;23.30;99.90;;;;;;5030982;28;20221;-82
2023/08/19 13:24:52;;;;;;;7.40;2.60;;;23.20;99.90;;;;;;5048371;28;20217;-82
2023/08/19 13:27:19;;;;;;;2.83;2.00;;;23.40;99.90;;;;;;5030816;28;20178;-82
2023/08/19 13:29:47;;;;;;;4.78;1.92;;;23.50;99.90;;;;;;5031449;28;20666;-82
2023/08/19 13:32:13;;;;;;;3.90;2.33;;;23.50;99.90;;;;;;5031184;28;20252;-82